sensor_id;sensor_type;location;lat;lon;timestamp;P1;durP1;ratioP1;P2;durP2;ratioP2
40164;SDS011;25882;51.120;17.248;2022-12-15T00:01:39;114.82;;;49.45;;
40164;SDS011;25882;51.120;17.248;2022-12-15T00:04:31;117.15;;;49.83;;
40164;SDS011;25882;51.120;17.248;2022-12-15T00:07:19;122.85;;;48.08;;
40164;SDS011;25882;51.120;17.248;2022-12-15T00:10:08;105.38;;;45.70;;
40164;SDS011;25882;51.120;17.248;2022-12-15T00:12:57;109.85;;;49.13;;
40164;SDS011;25882;51.120;17.248;2022-12-15T00:15:44;106.68;;;46.35;;
40164;SDS011;25882;51.120;17.248;2022-12-15T00:18:33;98.70;;;45.35;;
40164;SDS011;25882;51.120;17.248;2022-12-15T00:21:21;110.93;;;44.85;;
40164;SDS011;25882;51.120;17.248;2022-12-15T00:24:09;122.55;;;51.75;;
40164;SDS011;25882;51.120;17.248;2022-12-15T00:26:55;131.07;;;53.15;;
40164;SDS011;25882;51.120;17.248;2022-12-15T00:29:45;131.40;;;53.58;;
40164;SDS011;25882;51.120;17.248;2022-12-15T00:32:39;130.43;;;56.67;;
40164;SDS011;25882;51.120;17.248;2022-12-15T00:35:27;138.38;;;60.72;;
40164;SDS011;25882;51.120;17.248;2022-12-15T00:38:19;135.77;;;61.83;;
40164;SDS011;25882;51.120;17.248;2022-12-15T00:41:10;139.40;;;60.08;;
40164;SDS011;25882;51.120;17.248;2022-12-15T00:43:44;151.35;;;64.35;;
40164;SDS011;25882;51.120;17.248;2022-12-15T00:46:16;149.20;;;62.85;;
40164;SDS011;25882;51.120;17.248;2022-12-15T00:49:07;148.88;;;59.22;;
40164;SDS011;25882;51.120;17.248;2022-12-15T00:51:56;144.25;;;62.10;;
40164;SDS011;25882;51.120;17.248;2022-12-15T00:54:50;139.68;;;57.13;;
40164;SDS011;25882;51.120;17.248;2022-12-15T00:57:45;140.02;;;57.50;;
40164;SDS011;25882;51.120;17.248;2022-12-15T01:00:39;129.13;;;52.72;;
40164;SDS011;25882;51.120;17.248;2022-12-15T01:03:27;136.85;;;54.53;;
40164;SDS011;25882;51.120;17.248;2022-12-15T01:06:14;141.55;;;58.75;;
40164;SDS011;25882;51.120;17.248;2022-12-15T01:09:05;140.88;;;56.97;;
40164;SDS011;25882;51.120;17.248;2022-12-15T01:11:55;145.75;;;60.22;;
40164;SDS011;25882;51.120;17.248;2022-12-15T01:14:42;142.13;;;58.53;;
40164;SDS011;25882;51.120;17.248;2022-12-15T01:17:29;152.18;;;61.63;;
40164;SDS011;25882;51.120;17.248;2022-12-15T01:20:20;156.30;;;63.72;;
40164;SDS011;25882;51.120;17.248;2022-12-15T01:22:53;152.13;;;65.40;;
40164;SDS011;25882;51.120;17.248;2022-12-15T01:25:24;156.52;;;67.25;;
40164;SDS011;25882;51.120;17.248;2022-12-15T01:27:57;157.10;;;63.72;;
40164;SDS011;25882;51.120;17.248;2022-12-15T01:30:26;164.60;;;68.90;;
40164;SDS011;25882;51.120;17.248;2022-12-15T01:32:56;158.75;;;64.90;;
40164;SDS011;25882;51.120;17.248;2022-12-15T01:35:25;146.00;;;60.15;;
40164;SDS011;25882;51.120;17.248;2022-12-15T01:37:55;143.90;;;53.42;;
40164;SDS011;25882;51.120;17.248;2022-12-15T01:40:24;150.68;;;63.13;;
40164;SDS011;25882;51.120;17.248;2022-12-15T01:43:14;132.35;;;54.78;;
40164;SDS011;25882;51.120;17.248;2022-12-15T01:45:53;137.82;;;55.53;;
40164;SDS011;25882;51.120;17.248;2022-12-15T01:48:28;135.60;;;54.17;;
40164;SDS011;25882;51.120;17.248;2022-12-15T01:51:05;129.88;;;52.55;;
40164;SDS011;25882;51.120;17.248;2022-12-15T01:53:38;135.25;;;54.75;;
40164;SDS011;25882;51.120;17.248;2022-12-15T01:56:09;137.25;;;56.67;;
40164;SDS011;25882;51.120;17.248;2022-12-15T01:58:42;141.77;;;55.28;;
40164;SDS011;25882;51.120;17.248;2022-12-15T02:01:18;141.13;;;54.85;;
40164;SDS011;25882;51.120;17.248;2022-12-15T02:03:52;135.27;;;54.55;;
40164;SDS011;25882;51.120;17.248;2022-12-15T02:06:23;141.48;;;58.30;;
40164;SDS011;25882;51.120;17.248;2022-12-15T02:08:54;163.38;;;60.97;;
40164;SDS011;25882;51.120;17.248;2022-12-15T02:11:33;156.02;;;58.60;;
40164;SDS011;25882;51.120;17.248;2022-12-15T02:14:18;156.10;;;57.40;;
40164;SDS011;25882;51.120;17.248;2022-12-15T02:17:14;141.25;;;54.22;;
40164;SDS011;25882;51.120;17.248;2022-12-15T02:20:10;146.68;;;61.40;;
40164;SDS011;25882;51.120;17.248;2022-12-15T02:26:07;146.93;;;58.72;;
40164;SDS011;25882;51.120;17.248;2022-12-15T02:29:07;160.43;;;63.25;;
40164;SDS011;25882;51.120;17.248;2022-12-15T02:31:48;151.32;;;58.60;;
40164;SDS011;25882;51.120;17.248;2022-12-15T02:34:24;150.85;;;60.05;;
40164;SDS011;25882;51.120;17.248;2022-12-15T02:36:55;158.38;;;60.58;;
40164;SDS011;25882;51.120;17.248;2022-12-15T02:39:25;160.02;;;63.67;;
40164;SDS011;25882;51.120;17.248;2022-12-15T02:41:59;155.80;;;63.75;;
40164;SDS011;25882;51.120;17.248;2022-12-15T02:44:32;169.80;;;63.42;;
40164;SDS011;25882;51.120;17.248;2022-12-15T02:47:11;150.38;;;61.10;;
40164;SDS011;25882;51.120;17.248;2022-12-15T02:49:50;152.30;;;61.30;;
40164;SDS011;25882;51.120;17.248;2022-12-15T02:52:33;157.77;;;63.80;;
40164;SDS011;25882;51.120;17.248;2022-12-15T02:55:13;167.73;;;66.85;;
40164;SDS011;25882;51.120;17.248;2022-12-15T02:57:49;141.57;;;57.80;;
40164;SDS011;25882;51.120;17.248;2022-12-15T03:03:57;138.57;;;54.63;;
40164;SDS011;25882;51.120;17.248;2022-12-15T03:06:24;143.07;;;58.55;;
40164;SDS011;25882;51.120;17.248;2022-12-15T03:08:52;148.35;;;57.33;;
40164;SDS011;25882;51.120;17.248;2022-12-15T03:11:18;126.97;;;55.85;;
40164;SDS011;25882;51.120;17.248;2022-12-15T03:13:44;137.00;;;56.80;;
40164;SDS011;25882;51.120;17.248;2022-12-15T03:16:11;119.90;;;53.00;;
40164;SDS011;25882;51.120;17.248;2022-12-15T03:18:37;125.20;;;52.55;;
40164;SDS011;25882;51.120;17.248;2022-12-15T03:21:05;132.93;;;58.05;;
40164;SDS011;25882;51.120;17.248;2022-12-15T03:23:33;143.35;;;54.35;;
40164;SDS011;25882;51.120;17.248;2022-12-15T03:25:59;134.43;;;57.08;;
40164;SDS011;25882;51.120;17.248;2022-12-15T03:28:25;144.05;;;61.10;;
40164;SDS011;25882;51.120;17.248;2022-12-15T03:30:52;134.35;;;57.22;;
40164;SDS011;25882;51.120;17.248;2022-12-15T03:33:18;129.82;;;53.42;;
40164;SDS011;25882;51.120;17.248;2022-12-15T03:35:44;134.20;;;54.47;;
40164;SDS011;25882;51.120;17.248;2022-12-15T03:38:12;128.48;;;54.40;;
40164;SDS011;25882;51.120;17.248;2022-12-15T03:40:39;119.45;;;50.15;;
40164;SDS011;25882;51.120;17.248;2022-12-15T03:43:05;126.35;;;54.92;;
40164;SDS011;25882;51.120;17.248;2022-12-15T03:45:31;123.53;;;54.85;;
40164;SDS011;25882;51.120;17.248;2022-12-15T03:47:58;121.47;;;53.38;;
40164;SDS011;25882;51.120;17.248;2022-12-15T03:50:25;127.30;;;54.80;;
40164;SDS011;25882;51.120;17.248;2022-12-15T03:52:53;128.32;;;56.03;;
40164;SDS011;25882;51.120;17.248;2022-12-15T03:55:21;133.32;;;55.90;;
40164;SDS011;25882;51.120;17.248;2022-12-15T03:57:48;135.00;;;53.78;;
40164;SDS011;25882;51.120;17.248;2022-12-15T04:00:16;132.60;;;56.05;;
40164;SDS011;25882;51.120;17.248;2022-12-15T04:02:43;119.35;;;47.85;;
40164;SDS011;25882;51.120;17.248;2022-12-15T04:05:11;115.72;;;47.33;;
40164;SDS011;25882;51.120;17.248;2022-12-15T04:07:40;109.03;;;49.40;;
40164;SDS011;25882;51.120;17.248;2022-12-15T04:10:06;114.70;;;48.10;;
40164;SDS011;25882;51.120;17.248;2022-12-15T04:12:35;122.07;;;48.72;;
40164;SDS011;25882;51.120;17.248;2022-12-15T04:15:04;114.72;;;47.95;;
40164;SDS011;25882;51.120;17.248;2022-12-15T04:17:32;112.75;;;48.85;;
40164;SDS011;25882;51.120;17.248;2022-12-15T04:19:58;119.47;;;49.65;;
40164;SDS011;25882;51.120;17.248;2022-12-15T04:22:34;115.78;;;46.47;;
40164;SDS011;25882;51.120;17.248;2022-12-15T04:25:01;116.07;;;47.80;;
40164;SDS011;25882;51.120;17.248;2022-12-15T04:27:47;115.40;;;47.42;;
40164;SDS011;25882;51.120;17.248;2022-12-15T04:30:32;111.70;;;43.35;;
40164;SDS011;25882;51.120;17.248;2022-12-15T04:33:17;103.90;;;45.38;;
40164;SDS011;25882;51.120;17.248;2022-12-15T04:36:02;107.03;;;46.08;;
40164;SDS011;25882;51.120;17.248;2022-12-15T04:38:48;112.20;;;44.67;;
40164;SDS011;25882;51.120;17.248;2022-12-15T04:41:33;108.15;;;46.75;;
40164;SDS011;25882;51.120;17.248;2022-12-15T04:44:20;109.95;;;46.50;;
40164;SDS011;25882;51.120;17.248;2022-12-15T04:47:05;110.43;;;44.10;;
40164;SDS011;25882;51.120;17.248;2022-12-15T04:49:50;107.60;;;46.47;;
40164;SDS011;25882;51.120;17.248;2022-12-15T04:52:34;110.40;;;43.05;;
40164;SDS011;25882;51.120;17.248;2022-12-15T04:55:19;101.05;;;40.67;;
40164;SDS011;25882;51.120;17.248;2022-12-15T04:58:04;105.22;;;43.55;;
40164;SDS011;25882;51.120;17.248;2022-12-15T05:00:51;117.63;;;48.15;;
40164;SDS011;25882;51.120;17.248;2022-12-15T05:03:36;94.18;;;41.50;;
40164;SDS011;25882;51.120;17.248;2022-12-15T05:06:22;106.28;;;42.88;;
40164;SDS011;25882;51.120;17.248;2022-12-15T05:09:07;98.88;;;41.33;;
40164;SDS011;25882;51.120;17.248;2022-12-15T05:11:52;97.00;;;43.65;;
40164;SDS011;25882;51.120;17.248;2022-12-15T05:14:36;91.57;;;40.58;;
40164;SDS011;25882;51.120;17.248;2022-12-15T05:17:23;94.43;;;40.72;;
40164;SDS011;25882;51.120;17.248;2022-12-15T05:20:08;90.95;;;42.65;;
40164;SDS011;25882;51.120;17.248;2022-12-15T05:22:54;90.20;;;39.22;;
40164;SDS011;25882;51.120;17.248;2022-12-15T05:25:39;91.25;;;40.00;;
40164;SDS011;25882;51.120;17.248;2022-12-15T05:28:24;102.47;;;43.13;;
40164;SDS011;25882;51.120;17.248;2022-12-15T05:31:09;94.53;;;43.50;;
40164;SDS011;25882;51.120;17.248;2022-12-15T05:33:56;99.28;;;41.90;;
40164;SDS011;25882;51.120;17.248;2022-12-15T05:36:23;98.88;;;42.33;;
40164;SDS011;25882;51.120;17.248;2022-12-15T05:38:50;100.80;;;40.83;;
40164;SDS011;25882;51.120;17.248;2022-12-15T05:41:17;100.70;;;41.92;;
40164;SDS011;25882;51.120;17.248;2022-12-15T05:43:44;99.28;;;42.78;;
40164;SDS011;25882;51.120;17.248;2022-12-15T05:46:10;95.57;;;40.63;;
40164;SDS011;25882;51.120;17.248;2022-12-15T05:48:36;117.45;;;44.22;;
40164;SDS011;25882;51.120;17.248;2022-12-15T05:51:04;99.05;;;42.40;;
40164;SDS011;25882;51.120;17.248;2022-12-15T05:53:32;93.43;;;41.60;;
40164;SDS011;25882;51.120;17.248;2022-12-15T05:56:02;93.88;;;41.50;;
40164;SDS011;25882;51.120;17.248;2022-12-15T05:58:29;94.05;;;39.03;;
40164;SDS011;25882;51.120;17.248;2022-12-15T06:01:01;98.80;;;40.63;;
40164;SDS011;25882;51.120;17.248;2022-12-15T06:03:28;95.53;;;40.22;;
40164;SDS011;25882;51.120;17.248;2022-12-15T06:05:54;102.60;;;41.88;;
40164;SDS011;25882;51.120;17.248;2022-12-15T06:08:22;91.78;;;36.90;;
40164;SDS011;25882;51.120;17.248;2022-12-15T06:10:50;81.53;;;34.80;;
40164;SDS011;25882;51.120;17.248;2022-12-15T06:13:17;75.10;;;35.08;;
40164;SDS011;25882;51.120;17.248;2022-12-15T06:15:52;79.78;;;34.92;;
40164;SDS011;25882;51.120;17.248;2022-12-15T06:18:20;71.30;;;32.63;;
40164;SDS011;25882;51.120;17.248;2022-12-15T06:20:46;73.38;;;35.03;;
40164;SDS011;25882;51.120;17.248;2022-12-15T06:23:12;79.07;;;35.80;;
40164;SDS011;25882;51.120;17.248;2022-12-15T06:25:40;75.45;;;33.88;;
40164;SDS011;25882;51.120;17.248;2022-12-15T06:28:07;82.38;;;34.28;;
40164;SDS011;25882;51.120;17.248;2022-12-15T06:30:33;92.82;;;38.63;;
40164;SDS011;25882;51.120;17.248;2022-12-15T06:33:00;176.52;;;58.92;;
40164;SDS011;25882;51.120;17.248;2022-12-15T06:35:26;134.25;;;51.20;;
40164;SDS011;25882;51.120;17.248;2022-12-15T06:37:52;91.03;;;37.28;;
40164;SDS011;25882;51.120;17.248;2022-12-15T06:40:19;67.93;;;30.38;;
40164;SDS011;25882;51.120;17.248;2022-12-15T06:42:47;63.40;;;27.40;;
40164;SDS011;25882;51.120;17.248;2022-12-15T06:45:13;61.72;;;28.52;;
40164;SDS011;25882;51.120;17.248;2022-12-15T06:47:40;71.18;;;33.85;;
40164;SDS011;25882;51.120;17.248;2022-12-15T06:50:06;90.10;;;40.08;;
40164;SDS011;25882;51.120;17.248;2022-12-15T06:52:33;75.35;;;37.65;;
40164;SDS011;25882;51.120;17.248;2022-12-15T06:54:59;82.13;;;38.50;;
40164;SDS011;25882;51.120;17.248;2022-12-15T06:57:26;74.18;;;32.80;;
40164;SDS011;25882;51.120;17.248;2022-12-15T06:59:54;64.60;;;30.17;;
40164;SDS011;25882;51.120;17.248;2022-12-15T07:02:20;68.97;;;31.98;;
40164;SDS011;25882;51.120;17.248;2022-12-15T07:04:46;71.40;;;31.02;;
40164;SDS011;25882;51.120;17.248;2022-12-15T07:07:13;113.20;;;49.75;;
40164;SDS011;25882;51.120;17.248;2022-12-15T07:09:39;173.65;;;77.00;;
40164;SDS011;25882;51.120;17.248;2022-12-15T07:12:06;128.20;;;56.05;;
40164;SDS011;25882;51.120;17.248;2022-12-15T07:14:33;105.18;;;45.92;;
40164;SDS011;25882;51.120;17.248;2022-12-15T07:17:01;132.18;;;52.75;;
40164;SDS011;25882;51.120;17.248;2022-12-15T07:19:28;140.10;;;52.25;;
40164;SDS011;25882;51.120;17.248;2022-12-15T07:21:54;70.88;;;32.67;;
40164;SDS011;25882;51.120;17.248;2022-12-15T07:24:23;75.50;;;32.42;;
40164;SDS011;25882;51.120;17.248;2022-12-15T07:26:50;103.28;;;45.95;;
40164;SDS011;25882;51.120;17.248;2022-12-15T07:29:16;247.90;;;95.13;;
40164;SDS011;25882;51.120;17.248;2022-12-15T07:31:42;276.52;;;109.60;;
40164;SDS011;25882;51.120;17.248;2022-12-15T07:34:10;275.27;;;113.47;;
40164;SDS011;25882;51.120;17.248;2022-12-15T07:36:36;208.70;;;94.78;;
40164;SDS011;25882;51.120;17.248;2022-12-15T07:39:03;125.85;;;56.60;;
40164;SDS011;25882;51.120;17.248;2022-12-15T07:41:30;85.32;;;39.72;;
40164;SDS011;25882;51.120;17.248;2022-12-15T07:43:56;87.93;;;39.67;;
40164;SDS011;25882;51.120;17.248;2022-12-15T07:46:23;82.60;;;35.05;;
40164;SDS011;25882;51.120;17.248;2022-12-15T07:48:50;97.15;;;37.58;;
40164;SDS011;25882;51.120;17.248;2022-12-15T07:51:19;105.65;;;41.50;;
40164;SDS011;25882;51.120;17.248;2022-12-15T07:53:45;90.40;;;37.88;;
40164;SDS011;25882;51.120;17.248;2022-12-15T07:56:12;80.47;;;32.75;;
40164;SDS011;25882;51.120;17.248;2022-12-15T07:58:40;59.90;;;27.50;;
40164;SDS011;25882;51.120;17.248;2022-12-15T08:01:08;65.32;;;26.08;;
40164;SDS011;25882;51.120;17.248;2022-12-15T08:03:36;59.20;;;27.00;;
40164;SDS011;25882;51.120;17.248;2022-12-15T08:06:03;53.35;;;25.33;;
40164;SDS011;25882;51.120;17.248;2022-12-15T08:08:32;64.93;;;26.88;;
40164;SDS011;25882;51.120;17.248;2022-12-15T08:11:02;71.93;;;29.83;;
40164;SDS011;25882;51.120;17.248;2022-12-15T08:13:28;51.30;;;23.40;;
40164;SDS011;25882;51.120;17.248;2022-12-15T08:15:55;51.47;;;20.13;;
40164;SDS011;25882;51.120;17.248;2022-12-15T08:18:21;43.55;;;20.63;;
40164;SDS011;25882;51.120;17.248;2022-12-15T08:20:48;40.45;;;19.23;;
40164;SDS011;25882;51.120;17.248;2022-12-15T08:23:14;44.30;;;20.77;;
40164;SDS011;25882;51.120;17.248;2022-12-15T08:25:42;38.13;;;18.85;;
40164;SDS011;25882;51.120;17.248;2022-12-15T08:28:08;49.25;;;21.00;;
40164;SDS011;25882;51.120;17.248;2022-12-15T08:30:34;54.60;;;23.20;;
40164;SDS011;25882;51.120;17.248;2022-12-15T08:33:01;60.13;;;23.70;;
40164;SDS011;25882;51.120;17.248;2022-12-15T08:35:29;61.33;;;25.52;;
40164;SDS011;25882;51.120;17.248;2022-12-15T08:37:56;58.47;;;25.83;;
40164;SDS011;25882;51.120;17.248;2022-12-15T08:40:24;49.58;;;22.60;;
40164;SDS011;25882;51.120;17.248;2022-12-15T08:42:53;49.65;;;20.75;;
40164;SDS011;25882;51.120;17.248;2022-12-15T08:45:20;48.03;;;20.55;;
40164;SDS011;25882;51.120;17.248;2022-12-15T08:47:47;42.92;;;21.35;;
40164;SDS011;25882;51.120;17.248;2022-12-15T08:50:15;50.00;;;22.40;;
40164;SDS011;25882;51.120;17.248;2022-12-15T08:52:43;70.15;;;27.40;;
40164;SDS011;25882;51.120;17.248;2022-12-15T08:55:09;73.53;;;30.08;;
40164;SDS011;25882;51.120;17.248;2022-12-15T08:57:36;92.60;;;35.78;;
40164;SDS011;25882;51.120;17.248;2022-12-15T09:00:04;110.57;;;41.05;;
40164;SDS011;25882;51.120;17.248;2022-12-15T09:02:31;121.25;;;43.50;;
40164;SDS011;25882;51.120;17.248;2022-12-15T09:04:58;143.70;;;50.50;;
40164;SDS011;25882;51.120;17.248;2022-12-15T09:07:24;132.02;;;47.47;;
40164;SDS011;25882;51.120;17.248;2022-12-15T09:09:50;122.90;;;45.42;;
40164;SDS011;25882;51.120;17.248;2022-12-15T09:12:16;137.55;;;46.53;;
40164;SDS011;25882;51.120;17.248;2022-12-15T09:14:43;188.32;;;69.10;;
40164;SDS011;25882;51.120;17.248;2022-12-15T09:17:10;132.30;;;47.30;;
40164;SDS011;25882;51.120;17.248;2022-12-15T09:19:37;178.27;;;66.57;;
40164;SDS011;25882;51.120;17.248;2022-12-15T09:22:03;117.30;;;46.95;;
40164;SDS011;25882;51.120;17.248;2022-12-15T09:24:32;65.95;;;27.85;;
40164;SDS011;25882;51.120;17.248;2022-12-15T09:26:58;50.33;;;21.88;;
40164;SDS011;25882;51.120;17.248;2022-12-15T09:29:24;43.80;;;19.80;;
40164;SDS011;25882;51.120;17.248;2022-12-15T09:31:50;57.20;;;22.20;;
40164;SDS011;25882;51.120;17.248;2022-12-15T09:34:18;48.20;;;22.00;;
40164;SDS011;25882;51.120;17.248;2022-12-15T09:36:44;47.15;;;20.52;;
40164;SDS011;25882;51.120;17.248;2022-12-15T09:39:11;46.20;;;21.67;;
40164;SDS011;25882;51.120;17.248;2022-12-15T09:41:38;60.63;;;25.38;;
40164;SDS011;25882;51.120;17.248;2022-12-15T09:44:18;49.42;;;23.00;;
40164;SDS011;25882;51.120;17.248;2022-12-15T09:46:48;44.67;;;20.40;;
40164;SDS011;25882;51.120;17.248;2022-12-15T09:49:26;50.90;;;21.40;;
40164;SDS011;25882;51.120;17.248;2022-12-15T09:52:00;54.80;;;24.90;;
40164;SDS011;25882;51.120;17.248;2022-12-15T09:54:30;85.32;;;30.83;;
40164;SDS011;25882;51.120;17.248;2022-12-15T09:56:57;74.35;;;29.70;;
40164;SDS011;25882;51.120;17.248;2022-12-15T09:59:28;78.05;;;30.55;;
40164;SDS011;25882;51.120;17.248;2022-12-15T10:01:59;42.55;;;18.48;;
40164;SDS011;25882;51.120;17.248;2022-12-15T10:04:45;51.60;;;21.33;;
40164;SDS011;25882;51.120;17.248;2022-12-15T10:07:18;56.17;;;24.75;;
40164;SDS011;25882;51.120;17.248;2022-12-15T10:09:48;56.38;;;24.98;;
40164;SDS011;25882;51.120;17.248;2022-12-15T10:12:15;60.08;;;26.50;;
40164;SDS011;25882;51.120;17.248;2022-12-15T10:14:45;59.83;;;25.52;;
40164;SDS011;25882;51.120;17.248;2022-12-15T10:17:17;53.53;;;24.73;;
40164;SDS011;25882;51.120;17.248;2022-12-15T10:19:50;78.10;;;29.92;;
40164;SDS011;25882;51.120;17.248;2022-12-15T10:22:21;78.45;;;29.77;;
40164;SDS011;25882;51.120;17.248;2022-12-15T10:24:49;85.70;;;33.72;;
40164;SDS011;25882;51.120;17.248;2022-12-15T10:27:21;75.47;;;29.75;;
40164;SDS011;25882;51.120;17.248;2022-12-15T10:30:04;66.60;;;27.42;;
40164;SDS011;25882;51.120;17.248;2022-12-15T10:32:37;60.90;;;26.52;;
40164;SDS011;25882;51.120;17.248;2022-12-15T10:35:13;55.08;;;23.20;;
40164;SDS011;25882;51.120;17.248;2022-12-15T10:37:41;34.72;;;17.23;;
40164;SDS011;25882;51.120;17.248;2022-12-15T10:40:08;42.40;;;18.48;;
40164;SDS011;25882;51.120;17.248;2022-12-15T10:42:43;31.55;;;15.45;;
40164;SDS011;25882;51.120;17.248;2022-12-15T10:45:27;30.23;;;13.88;;
40164;SDS011;25882;51.120;17.248;2022-12-15T10:47:55;27.63;;;12.65;;
40164;SDS011;25882;51.120;17.248;2022-12-15T10:50:25;28.60;;;12.40;;
40164;SDS011;25882;51.120;17.248;2022-12-15T10:52:51;25.83;;;12.57;;
40164;SDS011;25882;51.120;17.248;2022-12-15T10:55:30;29.13;;;13.88;;
40164;SDS011;25882;51.120;17.248;2022-12-15T10:57:58;30.50;;;14.02;;
40164;SDS011;25882;51.120;17.248;2022-12-15T11:00:28;27.88;;;13.93;;
40164;SDS011;25882;51.120;17.248;2022-12-15T11:02:56;28.73;;;13.85;;
40164;SDS011;25882;51.120;17.248;2022-12-15T11:05:24;28.67;;;13.95;;
40164;SDS011;25882;51.120;17.248;2022-12-15T11:07:53;26.55;;;14.43;;
40164;SDS011;25882;51.120;17.248;2022-12-15T11:10:21;27.25;;;13.20;;
40164;SDS011;25882;51.120;17.248;2022-12-15T11:12:56;29.92;;;14.30;;
40164;SDS011;25882;51.120;17.248;2022-12-15T11:15:39;30.17;;;13.75;;
40164;SDS011;25882;51.120;17.248;2022-12-15T11:18:12;30.92;;;15.05;;
40164;SDS011;25882;51.120;17.248;2022-12-15T11:20:49;34.33;;;16.58;;
40164;SDS011;25882;51.120;17.248;2022-12-15T11:23:20;40.90;;;18.75;;
40164;SDS011;25882;51.120;17.248;2022-12-15T11:25:54;38.17;;;16.63;;
40164;SDS011;25882;51.120;17.248;2022-12-15T11:28:24;39.03;;;17.08;;
40164;SDS011;25882;51.120;17.248;2022-12-15T11:30:55;34.22;;;15.88;;
40164;SDS011;25882;51.120;17.248;2022-12-15T11:33:24;29.17;;;14.40;;
40164;SDS011;25882;51.120;17.248;2022-12-15T11:35:55;33.65;;;15.45;;
40164;SDS011;25882;51.120;17.248;2022-12-15T11:38:28;28.67;;;14.40;;
40164;SDS011;25882;51.120;17.248;2022-12-15T11:40:59;35.25;;;16.40;;
40164;SDS011;25882;51.120;17.248;2022-12-15T11:43:48;36.28;;;15.75;;
40164;SDS011;25882;51.120;17.248;2022-12-15T11:46:21;34.42;;;16.00;;
40164;SDS011;25882;51.120;17.248;2022-12-15T11:48:53;33.92;;;15.65;;
40164;SDS011;25882;51.120;17.248;2022-12-15T11:51:30;33.08;;;14.75;;
40164;SDS011;25882;51.120;17.248;2022-12-15T11:54:06;31.50;;;14.35;;
40164;SDS011;25882;51.120;17.248;2022-12-15T11:56:41;27.48;;;13.75;;
40164;SDS011;25882;51.120;17.248;2022-12-15T11:59:16;30.75;;;13.27;;
40164;SDS011;25882;51.120;17.248;2022-12-15T12:01:55;33.20;;;14.07;;
40164;SDS011;25882;51.120;17.248;2022-12-15T12:04:29;27.70;;;14.52;;
40164;SDS011;25882;51.120;17.248;2022-12-15T12:07:05;30.08;;;13.88;;
40164;SDS011;25882;51.120;17.248;2022-12-15T12:09:35;32.72;;;15.43;;
40164;SDS011;25882;51.120;17.248;2022-12-15T12:12:06;29.27;;;14.88;;
40164;SDS011;25882;51.120;17.248;2022-12-15T12:14:38;31.05;;;14.02;;
40164;SDS011;25882;51.120;17.248;2022-12-15T12:17:10;32.92;;;16.02;;
40164;SDS011;25882;51.120;17.248;2022-12-15T12:19:40;39.28;;;15.25;;
40164;SDS011;25882;51.120;17.248;2022-12-15T12:22:12;25.20;;;13.98;;
40164;SDS011;25882;51.120;17.248;2022-12-15T12:24:47;28.17;;;13.82;;
40164;SDS011;25882;51.120;17.248;2022-12-15T12:27:17;32.58;;;14.13;;
40164;SDS011;25882;51.120;17.248;2022-12-15T12:29:49;28.92;;;13.50;;
40164;SDS011;25882;51.120;17.248;2022-12-15T12:32:22;28.13;;;13.38;;
40164;SDS011;25882;51.120;17.248;2022-12-15T12:34:56;33.08;;;13.77;;
40164;SDS011;25882;51.120;17.248;2022-12-15T12:37:34;28.17;;;13.77;;
40164;SDS011;25882;51.120;17.248;2022-12-15T12:40:02;28.83;;;13.65;;
40164;SDS011;25882;51.120;17.248;2022-12-15T12:42:32;28.17;;;13.27;;
40164;SDS011;25882;51.120;17.248;2022-12-15T12:45:02;37.03;;;15.80;;
40164;SDS011;25882;51.120;17.248;2022-12-15T12:47:29;30.73;;;14.35;;
40164;SDS011;25882;51.120;17.248;2022-12-15T12:49:59;25.45;;;13.43;;
40164;SDS011;25882;51.120;17.248;2022-12-15T12:52:28;29.45;;;15.00;;
40164;SDS011;25882;51.120;17.248;2022-12-15T12:54:58;26.38;;;14.07;;
40164;SDS011;25882;51.120;17.248;2022-12-15T12:57:28;30.45;;;13.77;;
40164;SDS011;25882;51.120;17.248;2022-12-15T12:59:55;30.92;;;14.43;;
40164;SDS011;25882;51.120;17.248;2022-12-15T13:02:40;28.85;;;14.43;;
40164;SDS011;25882;51.120;17.248;2022-12-15T13:05:25;31.30;;;14.48;;
40164;SDS011;25882;51.120;17.248;2022-12-15T13:07:56;29.40;;;15.10;;
40164;SDS011;25882;51.120;17.248;2022-12-15T13:10:42;29.83;;;14.82;;
40164;SDS011;25882;51.120;17.248;2022-12-15T13:13:33;33.15;;;14.63;;
40164;SDS011;25882;51.120;17.248;2022-12-15T13:16:04;30.05;;;14.02;;
40164;SDS011;25882;51.120;17.248;2022-12-15T13:27:10;30.58;;;14.07;;
40164;SDS011;25882;51.120;17.248;2022-12-15T13:29:54;30.30;;;15.38;;
40164;SDS011;25882;51.120;17.248;2022-12-15T13:32:25;31.20;;;14.65;;
40164;SDS011;25882;51.120;17.248;2022-12-15T13:34:53;31.08;;;15.18;;
40164;SDS011;25882;51.120;17.248;2022-12-15T13:40:27;29.17;;;13.93;;
40164;SDS011;25882;51.120;17.248;2022-12-15T13:43:05;34.78;;;14.52;;
40164;SDS011;25882;51.120;17.248;2022-12-15T13:45:47;34.28;;;15.63;;
40164;SDS011;25882;51.120;17.248;2022-12-15T13:48:24;25.52;;;12.35;;
40164;SDS011;25882;51.120;17.248;2022-12-15T13:53:54;29.20;;;14.65;;
40164;SDS011;25882;51.120;17.248;2022-12-15T13:59:19;32.50;;;16.17;;
40164;SDS011;25882;51.120;17.248;2022-12-15T14:01:51;33.28;;;16.13;;
40164;SDS011;25882;51.120;17.248;2022-12-15T14:04:18;34.22;;;14.63;;
40164;SDS011;25882;51.120;17.248;2022-12-15T14:06:47;33.92;;;15.02;;
40164;SDS011;25882;51.120;17.248;2022-12-15T14:09:15;31.55;;;14.57;;
40164;SDS011;25882;51.120;17.248;2022-12-15T14:11:45;39.47;;;17.83;;
40164;SDS011;25882;51.120;17.248;2022-12-15T14:14:16;40.13;;;17.52;;
40164;SDS011;25882;51.120;17.248;2022-12-15T14:16:44;40.75;;;18.42;;
40164;SDS011;25882;51.120;17.248;2022-12-15T14:19:12;42.75;;;20.13;;
40164;SDS011;25882;51.120;17.248;2022-12-15T14:21:47;52.20;;;23.50;;
40164;SDS011;25882;51.120;17.248;2022-12-15T14:24:27;73.80;;;33.42;;
40164;SDS011;25882;51.120;17.248;2022-12-15T14:26:55;105.78;;;45.80;;
40164;SDS011;25882;51.120;17.248;2022-12-15T14:29:23;114.55;;;49.03;;
40164;SDS011;25882;51.120;17.248;2022-12-15T14:31:52;95.93;;;44.92;;
40164;SDS011;25882;51.120;17.248;2022-12-15T14:34:23;83.03;;;38.58;;
40164;SDS011;25882;51.120;17.248;2022-12-15T14:36:52;54.42;;;28.38;;
40164;SDS011;25882;51.120;17.248;2022-12-15T14:39:21;52.58;;;26.63;;
40164;SDS011;25882;51.120;17.248;2022-12-15T14:41:49;55.90;;;24.58;;
40164;SDS011;25882;51.120;17.248;2022-12-15T14:44:17;54.15;;;25.42;;
40164;SDS011;25882;51.120;17.248;2022-12-15T14:46:49;56.15;;;30.75;;
40164;SDS011;25882;51.120;17.248;2022-12-15T14:49:17;117.18;;;56.97;;
40164;SDS011;25882;51.120;17.248;2022-12-15T14:51:45;115.32;;;50.92;;
40164;SDS011;25882;51.120;17.248;2022-12-15T14:54:25;124.10;;;53.80;;
40164;SDS011;25882;51.120;17.248;2022-12-15T14:56:55;154.85;;;59.42;;
40164;SDS011;25882;51.120;17.248;2022-12-15T14:59:24;202.88;;;72.03;;
40164;SDS011;25882;51.120;17.248;2022-12-15T15:01:58;168.00;;;62.60;;